Time;durP1;ratioP1;P1;durP2;ratioP2;P2;SDS_P1;SDS_P2;PMS_P1;PMS_P2;Temp;Humidity;BMP_temperature;BMP_pressure;BME280_temperature;BME280_humidity;BME280_pressure;Samples;Min_cycle;Max_cycle;Signal;HPM_P1;HPM_P2
2022/10/06 00:01:02;;;;;;;3.40;3.10;;;15.00;99.90;;;;;;5066957;28;20676;-65
2022/10/06 00:03:30;;;;;;;4.83;3.37;;;14.90;99.90;;;;;;5060605;28;21199;-65
2022/10/06 00:06:00;;;;;;;4.97;3.13;;;14.90;99.90;;;;;;5070428;28;20701;-65
2022/10/06 00:08:29;;;;;;;3.47;2.63;;;14.80;99.90;;;;;;5062802;28;21230;-65
2022/10/06 00:10:58;;;;;;;7.90;2.70;;;14.90;99.90;;;;;;5067500;28;20627;-65
2022/10/06 00:13:27;;;;;;;5.73;3.00;;;14.80;99.90;;;;;;5060555;28;20637;-65
2022/10/06 00:15:56;;;;;;;3.60;3.30;;;14.70;99.90;;;;;;5065547;28;20963;-65
2022/10/06 00:18:24;;;;;;;4.33;2.87;;;14.60;99.90;;;;;;5051541;28;21140;-65
2022/10/06 00:20:57;;;;;;;3.40;3.10;;;14.60;99.90;;;;;;5052174;28;20696;-65
2022/10/06 00:23:25;;;;;;;3.87;3.47;;;14.50;99.90;;;;;;5058039;28;20580;-65
2022/10/06 00:25:53;;;;;;;3.00;2.57;;;14.50;99.90;;;;;;5066128;28;20641;-65
2022/10/06 00:28:21;;;;;;;5.47;3.30;;;14.50;99.90;;;;;;5064961;28;20957;-65
2022/10/06 00:30:52;;;;;;;5.53;3.10;;;14.50;99.90;;;;;;5075124;28;20956;-65
2022/10/06 00:33:21;;;;;;;4.17;3.57;;;14.40;99.90;;;;;;5074442;28;20614;-65
2022/10/06 00:35:56;;;;;;;4.40;2.90;;;14.30;99.90;;;;;;5075084;28;20621;-65
2022/10/06 00:38:25;;;;;;;6.27;3.50;;;14.20;99.90;;;;;;5070087;28;20621;-65
2022/10/06 00:40:52;;;;;;;4.10;3.70;;;14.20;99.90;;;;;;5062320;28;20682;-65
2022/10/06 00:43:45;;;;;;;5.07;3.07;;;14.20;99.90;;;;;;5062961;28;20713;-65
2022/10/06 00:46:32;;;;;;;5.53;2.93;;;14.20;99.90;;;;;;5069289;28;21255;-65
2022/10/06 00:49:07;;;;;;;5.40;3.40;;;14.10;99.90;;;;;;5068516;28;20615;-65
2022/10/06 00:51:38;;;;;;;5.63;3.50;;;14.00;99.90;;;;;;5066516;28;20749;-65
2022/10/06 00:54:06;;;;;;;4.10;3.10;;;14.00;99.90;;;;;;5054817;28;20581;-65
2022/10/06 00:56:34;;;;;;;3.83;3.60;;;14.00;99.90;;;;;;5054717;28;20646;-65
2022/10/06 00:59:02;;;;;;;6.37;4.13;;;14.00;99.90;;;;;;5051447;28;20631;-65
2022/10/06 01:01:32;;;;;;;4.03;3.60;;;14.00;99.90;;;;;;5051069;28;20640;-65
2022/10/06 01:04:06;;;;;;;7.43;3.47;;;14.00;99.90;;;;;;5056945;28;20631;-65
2022/10/06 01:06:48;;;;;;;5.80;3.80;;;13.90;99.90;;;;;;5052022;28;20618;-65
2022/10/06 01:09:18;;;;;;;9.10;5.20;;;13.90;99.90;;;;;;5050645;28;21087;-66
2022/10/06 01:11:48;;;;;;;3.57;3.23;;;14.00;99.90;;;;;;5056891;28;20622;-65
2022/10/06 01:14:18;;;;;;;5.07;4.27;;;13.90;99.90;;;;;;5057216;28;20593;-66
2022/10/06 01:16:51;;;;;;;5.50;3.50;;;14.00;99.90;;;;;;5057726;28;20619;-66
2022/10/06 01:19:35;;;;;;;5.57;4.00;;;13.90;99.90;;;;;;5058107;28;20688;-65
2022/10/06 01:22:07;;;;;;;7.80;3.80;;;13.90;99.90;;;;;;5057261;28;20600;-66
2022/10/06 01:24:37;;;;;;;9.53;4.17;;;14.00;99.90;;;;;;5060938;28;20630;-65
2022/10/06 01:27:08;;;;;;;27.10;4.70;;;14.00;99.90;;;;;;5067539;28;20589;-66
2022/10/06 01:29:36;;;;;;;11.67;5.10;;;14.00;99.90;;;;;;5066536;28;20598;-66
2022/10/06 01:32:05;;;;;;;6.67;4.53;;;13.90;99.90;;;;;;5070037;28;20622;-66
2022/10/06 01:34:33;;;;;;;8.00;4.23;;;13.90;99.90;;;;;;5070423;28;20577;-66
2022/10/06 01:37:01;;;;;;;4.10;3.80;;;13.80;99.90;;;;;;5051641;28;20590;-66
2022/10/06 01:39:29;;;;;;;4.37;3.97;;;13.70;99.90;;;;;;5050585;28;21073;-66
2022/10/06 01:41:58;;;;;;;8.40;4.60;;;13.70;99.90;;;;;;5051591;28;20611;-66
2022/10/06 01:44:26;;;;;;;5.00;4.50;;;13.60;99.90;;;;;;5056418;28;20618;-66
2022/10/06 01:46:54;;;;;;;4.47;4.13;;;13.70;99.90;;;;;;5057573;28;20601;-66
2022/10/06 01:49:22;;;;;;;6.20;4.50;;;13.70;99.90;;;;;;5057598;28;20642;-66
2022/10/06 01:51:50;;;;;;;4.97;4.53;;;13.60;99.90;;;;;;5059333;28;20691;-66
2022/10/06 01:54:18;;;;;;;11.80;5.00;;;13.60;99.90;;;;;;5059651;28;20624;-66
2022/10/06 01:56:46;;;;;;;11.03;3.90;;;13.70;99.90;;;;;;5059131;28;20632;-66
2022/10/06 01:59:16;;;;;;;4.90;4.40;;;13.80;99.90;;;;;;5057475;28;20630;-66
2022/10/06 02:01:44;;;;;;;6.83;4.60;;;13.80;99.90;;;;;;5060955;28;21265;-66
2022/10/06 02:04:12;;;;;;;9.97;4.40;;;13.80;99.90;;;;;;5057653;28;20630;-66
2022/10/06 02:06:41;;;;;;;5.63;5.10;;;13.90;99.90;;;;;;5057942;28;20631;-66
2022/10/06 02:09:09;;;;;;;4.70;4.23;;;14.10;99.90;;;;;;5060239;28;20635;-66
2022/10/06 02:11:39;;;;;;;8.00;4.73;;;14.10;99.90;;;;;;5051839;28;20970;-66
2022/10/06 02:14:07;;;;;;;6.17;3.97;;;14.30;99.90;;;;;;5051234;28;20597;-66
2022/10/06 02:16:37;;;;;;;5.33;3.87;;;14.40;99.90;;;;;;5051544;28;20634;-66
2022/10/06 02:19:05;;;;;;;7.17;5.40;;;14.30;99.90;;;;;;5054465;28;20597;-66
2022/10/06 02:21:33;;;;;;;5.60;5.03;;;14.40;99.90;;;;;;5054629;28;20636;-66
2022/10/06 02:24:02;;;;;;;6.00;5.43;;;14.40;99.90;;;;;;5053027;28;21010;-66
2022/10/06 02:26:30;;;;;;;8.27;4.60;;;14.30;99.90;;;;;;5052716;28;20639;-66
2022/10/06 02:28:58;;;;;;;8.23;4.80;;;14.30;99.90;;;;;;5056841;28;20617;-66
2022/10/06 02:31:26;;;;;;;12.80;4.60;;;14.30;99.90;;;;;;5055425;28;20633;-66
2022/10/06 02:33:56;;;;;;;5.80;4.63;;;14.50;99.90;;;;;;5055866;28;20623;-66
2022/10/06 02:36:25;;;;;;;6.13;4.90;;;14.50;99.90;;;;;;5052295;28;21188;-66
2022/10/06 02:38:53;;;;;;;7.40;4.23;;;14.60;99.90;;;;;;5053719;28;21046;-66
2022/10/06 02:41:21;;;;;;;6.23;4.40;;;14.60;99.90;;;;;;5055084;28;20754;-66
2022/10/06 02:43:50;;;;;;;6.30;4.53;;;14.60;99.90;;;;;;5059513;28;20626;-66
2022/10/06 02:46:18;;;;;;;10.57;4.77;;;14.50;99.90;;;;;;5061866;28;20634;-66
2022/10/06 02:48:52;;;;;;;8.23;4.60;;;14.50;99.90;;;;;;5062836;28;20602;-66
2022/10/06 02:51:23;;;;;;;9.33;4.67;;;14.60;99.90;;;;;;5062437;28;20658;-65
2022/10/06 02:53:52;;;;;;;10.50;5.73;;;14.50;99.90;;;;;;5060129;28;20577;-65
2022/10/06 02:56:22;;;;;;;7.87;4.90;;;14.40;99.90;;;;;;5049170;28;20685;-65
2022/10/06 02:58:51;;;;;;;4.83;4.27;;;14.40;99.90;;;;;;5049936;28;20606;-65
2022/10/06 03:01:29;;;;;;;8.50;4.07;;;14.30;99.90;;;;;;5063451;28;20654;-65
2022/10/06 03:04:05;;;;;;;6.47;4.80;;;14.30;99.90;;;;;;5048774;28;20597;-65
2022/10/06 03:06:35;;;;;;;6.30;4.77;;;14.10;99.90;;;;;;5048356;28;20606;-65
2022/10/06 03:09:10;;;;;;;14.13;5.93;;;14.00;99.90;;;;;;5059422;28;20597;-65
2022/10/06 03:11:42;;;;;;;10.97;9.10;;;13.90;99.90;;;;;;5050099;28;21219;-65
2022/10/06 03:14:13;;;;;;;5.53;4.87;;;13.80;99.90;;;;;;5051591;28;20660;-65
2022/10/06 03:16:43;;;;;;;6.10;5.13;;;13.80;99.90;;;;;;5068938;28;20655;-65
2022/10/06 03:19:16;;;;;;;10.70;5.37;;;14.00;99.90;;;;;;5058649;28;20578;-65
2022/10/06 03:21:48;;;;;;;13.70;5.57;;;14.00;99.90;;;;;;5057382;28;20615;-65
2022/10/06 03:24:17;;;;;;;9.30;5.60;;;14.10;99.90;;;;;;5047990;28;20629;-65
2022/10/06 03:26:49;;;;;;;10.47;5.93;;;14.10;99.90;;;;;;5058081;28;20626;-65
2022/10/06 03:29:19;;;;;;;9.17;4.90;;;14.00;99.90;;;;;;5055091;28;20679;-65
2022/10/06 03:31:52;;;;;;;7.47;6.10;;;13.80;99.90;;;;;;5050884;28;20648;-65
2022/10/06 03:34:20;;;;;;;5.20;4.67;;;13.70;99.90;;;;;;5052186;28;21116;-65
2022/10/06 03:36:50;;;;;;;10.33;6.33;;;13.70;99.90;;;;;;5070704;28;20622;-65
2022/10/06 03:39:22;;;;;;;7.10;5.60;;;13.60;99.90;;;;;;5071117;28;20571;-65
2022/10/06 03:41:51;;;;;;;6.70;6.00;;;13.60;99.90;;;;;;5066592;28;20712;-65
2022/10/06 03:44:20;;;;;;;7.20;5.40;;;13.60;99.90;;;;;;5058098;28;20633;-65
2022/10/06 03:46:49;;;;;;;10.30;5.43;;;13.50;99.90;;;;;;5071287;28;20991;-65
2022/10/06 03:49:17;;;;;;;13.83;6.27;;;13.50;99.90;;;;;;5060632;28;20657;-65
2022/10/06 03:51:45;;;;;;;9.83;6.67;;;13.50;99.90;;;;;;5049984;28;20639;-65
2022/10/06 03:54:28;;;;;;;10.47;6.20;;;13.40;99.90;;;;;;5050955;28;20727;-65
2022/10/06 03:56:58;;;;;;;7.00;5.30;;;13.40;99.90;;;;;;5049870;28;21211;-65
2022/10/06 03:59:28;;;;;;;10.80;6.57;;;13.40;99.90;;;;;;5050722;28;20611;-65
2022/10/06 04:01:56;;;;;;;6.37;5.77;;;13.40;99.90;;;;;;5064366;28;20765;-65
2022/10/06 04:04:27;;;;;;;7.50;5.60;;;13.40;99.90;;;;;;5067803;28;20600;-65
2022/10/06 04:07:01;;;;;;;10.43;6.50;;;13.40;99.90;;;;;;5063233;28;20615;-65
2022/10/06 04:09:30;;;;;;;13.83;6.60;;;13.50;99.90;;;;;;5067049;28;20596;-65
2022/10/06 04:11:58;;;;;;;8.27;5.73;;;13.60;99.90;;;;;;5069847;28;21149;-65
2022/10/06 04:14:26;;;;;;;6.10;5.40;;;13.70;99.90;;;;;;5056943;28;20637;-65
2022/10/06 04:16:55;;;;;;;11.80;7.50;;;13.70;99.90;;;;;;5051131;28;20598;-65
2022/10/06 04:19:31;;;;;;;7.03;5.90;;;13.90;99.90;;;;;;5055092;28;20946;-65
2022/10/06 04:22:00;;;;;;;18.30;5.70;;;14.10;99.90;;;;;;5049830;28;20651;-65
2022/10/06 04:24:28;;;;;;;6.10;5.30;;;14.20;99.90;;;;;;5060511;28;20672;-65
2022/10/06 04:27:26;;;;;;;5.90;4.57;;;14.20;99.90;;;;;;5061733;28;20991;-65
2022/10/06 04:29:55;;;;;;;7.33;5.20;;;14.20;99.90;;;;;;5057011;28;20653;-65
2022/10/06 04:32:23;;;;;;;8.80;6.43;;;14.20;99.90;;;;;;5066057;28;20936;-64
2022/10/06 04:34:51;;;;;;;8.20;7.17;;;14.00;99.90;;;;;;5067229;28;20606;-64
2022/10/06 04:37:19;;;;;;;10.30;6.33;;;13.90;99.90;;;;;;5051048;28;20627;-65
2022/10/06 04:39:47;;;;;;;6.03;5.53;;;13.90;99.90;;;;;;5062296;28;21027;-65
2022/10/06 04:42:16;;;;;;;5.33;4.80;;;14.00;99.90;;;;;;5058850;28;20721;-65
2022/10/06 04:44:45;;;;;;;7.07;6.47;;;14.00;99.90;;;;;;5066055;28;20701;-65
2022/10/06 04:47:12;;;;;;;7.17;6.47;;;14.00;99.90;;;;;;5051745;28;20658;-65
2022/10/06 04:49:40;;;;;;;11.50;6.57;;;14.00;99.90;;;;;;5051202;28;20613;-65
2022/10/06 04:52:09;;;;;;;8.60;6.40;;;13.90;99.90;;;;;;5058227;28;20587;-65
2022/10/06 04:54:39;;;;;;;6.10;5.50;;;13.90;99.90;;;;;;5056983;28;20608;-65
2022/10/06 04:57:09;;;;;;;49.10;25.57;;;14.10;99.90;;;;;;5066886;28;20660;-65
2022/10/06 05:02:24;;;;;;;4.73;4.17;;;14.30;99.90;;;;;;5032594;28;20669;-65
2022/10/06 05:04:56;;;;;;;4.60;3.50;;;14.40;99.90;;;;;;5063856;28;20971;-65
2022/10/06 05:07:25;;;;;;;4.23;3.83;;;14.50;99.90;;;;;;5059643;28;21212;-65
2022/10/06 05:10:18;;;;;;;3.43;3.23;;;14.40;99.90;;;;;;5008861;28;20636;-64
2022/10/06 05:12:46;;;;;;;4.80;3.70;;;14.50;99.90;;;;;;4994541;28;20636;-65
2022/10/06 05:15:16;;;;;;;3.90;3.50;;;14.50;99.90;;;;;;5057207;28;20687;-65
2022/10/06 05:17:43;;;;;;;3.97;3.60;;;14.50;99.90;;;;;;5050178;28;20631;-65
2022/10/06 05:20:12;;;;;;;6.20;3.80;;;14.50;99.90;;;;;;5057764;28;20585;-65
2022/10/06 05:22:40;;;;;;;5.77;4.37;;;14.50;99.90;;;;;;5060082;28;20719;-65
2022/10/06 05:25:09;;;;;;;4.53;3.33;;;14.50;99.90;;;;;;5062642;28;20673;-65
2022/10/06 05:27:37;;;;;;;14.03;4.10;;;14.50;99.90;;;;;;5050249;28;20646;-65
2022/10/06 05:30:06;;;;;;;4.70;3.80;;;14.50;99.90;;;;;;5049532;28;21030;-65
2022/10/06 05:32:35;;;;;;;11.13;4.03;;;14.50;99.90;;;;;;5031924;28;20976;-65
2022/10/06 05:35:03;;;;;;;8.93;3.20;;;14.50;99.90;;;;;;5048414;28;20605;-65
2022/10/06 05:37:31;;;;;;;8.13;3.30;;;14.50;99.90;;;;;;5056192;28;21052;-65
2022/10/06 05:39:59;;;;;;;6.37;3.83;;;14.60;99.90;;;;;;5047457;28;21135;-65
2022/10/06 05:42:27;;;;;;;10.90;3.70;;;14.60;99.90;;;;;;5049953;28;20686;-65
2022/10/06 05:44:55;;;;;;;6.60;2.70;;;14.60;99.90;;;;;;5057524;28;20631;-65
2022/10/06 05:47:23;;;;;;;4.97;2.80;;;14.60;99.90;;;;;;5057206;28;20639;-65
2022/10/06 05:49:52;;;;;;;4.50;3.57;;;14.60;99.90;;;;;;5056781;28;21260;-64
2022/10/06 05:52:20;;;;;;;9.00;4.70;;;14.60;99.90;;;;;;5058161;28;20611;-64
2022/10/06 05:54:49;;;;;;;7.67;3.17;;;14.60;99.90;;;;;;5054184;28;20984;-64
2022/10/06 05:57:17;;;;;;;4.87;2.90;;;14.60;99.90;;;;;;5052612;28;20653;-65
2022/10/06 05:59:45;;;;;;;2.70;2.53;;;14.60;99.90;;;;;;5065503;28;20726;-66
2022/10/06 06:02:13;;;;;;;5.63;2.67;;;14.60;99.90;;;;;;5068633;28;20636;-66
2022/10/06 06:04:44;;;;;;;3.30;2.77;;;14.50;99.90;;;;;;5050209;28;20912;-66
2022/10/06 06:07:13;;;;;;;5.33;2.13;;;14.50;99.90;;;;;;5059310;28;21181;-65
2022/10/06 06:09:43;;;;;;;5.00;2.80;;;14.50;99.90;;;;;;5051501;28;20606;-65
2022/10/06 06:12:11;;;;;;;3.00;2.70;;;14.50;99.90;;;;;;5056639;28;20593;-65
2022/10/06 06:18:04;;;;;;;8.80;2.90;;;14.50;99.90;;;;;;5005443;28;20607;-65
2022/10/06 06:20:32;;;;;;;2.23;1.60;;;14.40;99.90;;;;;;4990616;28;20625;-65
2022/10/06 06:23:02;;;;;;;3.77;1.93;;;14.50;99.90;;;;;;5016691;28;21248;-65
2022/10/06 06:25:32;;;;;;;5.20;1.97;;;14.50;99.90;;;;;;5049902;28;20614;-65
2022/10/06 06:28:00;;;;;;;3.20;1.53;;;14.60;99.90;;;;;;5051009;28;20627;-65
2022/10/06 06:30:28;;;;;;;6.13;1.70;;;14.60;99.90;;;;;;5063821;28;20604;-65
2022/10/06 06:32:58;;;;;;;1.50;1.40;;;14.70;99.90;;;;;;5056711;28;20637;-65
2022/10/06 06:35:27;;;;;;;5.77;1.50;;;14.70;99.90;;;;;;5057320;28;20648;-65
2022/10/06 06:37:54;;;;;;;6.83;1.73;;;14.70;99.90;;;;;;5048365;28;20589;-65
2022/10/06 06:40:24;;;;;;;5.37;1.60;;;14.80;99.90;;;;;;5052846;28;20627;-65
2022/10/06 06:42:53;;;;;;;2.43;1.53;;;14.80;99.90;;;;;;5052775;28;20662;-65
2022/10/06 06:46:02;;;;;;;2.70;1.20;;;14.80;99.90;;;;;;5037541;28;20597;-65
2022/10/06 06:48:48;;;;;;;4.93;2.80;;;14.80;99.90;;;;;;5021291;28;20867;-65
2022/10/06 06:51:18;;;;;;;5.97;2.10;;;14.90;99.90;;;;;;5042908;28;20718;-66
2022/10/06 06:53:46;;;;;;;8.50;1.77;;;14.90;99.90;;;;;;5048568;28;20626;-65
2022/10/06 06:56:16;;;;;;;3.23;1.43;;;14.80;99.90;;;;;;5057885;28;20652;-66
2022/10/06 06:58:46;;;;;;;2.20;1.77;;;14.80;99.90;;;;;;5052111;28;20989;-65
2022/10/06 07:01:16;;;;;;;4.93;2.40;;;14.90;99.90;;;;;;5053159;28;20634;-65
2022/10/06 07:03:47;;;;;;;3.60;1.63;;;14.90;99.90;;;;;;5052210;28;20657;-64
2022/10/06 07:06:16;;;;;;;4.30;1.50;;;15.00;99.90;;;;;;5059942;28;20622;-64
2022/10/06 07:08:47;;;;;;;6.17;2.23;;;14.90;99.90;;;;;;5067857;28;21140;-65
2022/10/06 07:11:20;;;;;;;5.40;1.47;;;15.00;99.90;;;;;;5067634;28;21379;-66
2022/10/06 07:13:52;;;;;;;6.20;1.50;;;15.00;99.90;;;;;;5067693;28;20602;-66
2022/10/06 07:27:34;;;;;;;3.83;1.80;;;15.40;99.90;;;;;;5056019;28;20600;-65
2022/10/06 07:30:02;;;;;;;5.37;1.90;;;15.60;99.90;;;;;;5065722;28;21041;-63
2022/10/06 07:32:30;;;;;;;3.63;1.10;;;15.70;99.90;;;;;;5061738;28;20626;-65
2022/10/06 07:34:59;;;;;;;4.80;1.87;;;15.70;99.90;;;;;;5070050;28;20589;-65
2022/10/06 07:37:28;;;;;;;4.40;1.73;;;15.80;99.90;;;;;;5069468;28;20624;-66
2022/10/06 07:39:58;;;;;;;3.37;2.07;;;15.80;99.90;;;;;;5061065;28;20614;-66
2022/10/06 07:42:26;;;;;;;5.90;1.40;;;15.90;99.90;;;;;;5060701;28;20641;-65
2022/10/06 07:47:58;;;;;;;8.47;1.60;;;15.90;99.90;;;;;;5029375;28;20607;-64
2022/10/06 07:50:26;;;;;;;6.10;1.70;;;16.20;99.90;;;;;;5023545;28;20697;-65
2022/10/06 07:52:54;;;;;;;7.03;1.70;;;16.40;99.90;;;;;;5048400;28;21138;-66
2022/10/06 07:55:22;;;;;;;5.67;1.70;;;16.50;99.90;;;;;;5060099;28;21215;-66
2022/10/06 07:58:12;;;;;;;11.73;2.50;;;16.60;99.90;;;;;;5064737;28;20707;-65
2022/10/06 08:00:42;;;;;;;3.83;1.37;;;16.90;99.90;;;;;;5061375;28;20640;-65
2022/10/06 08:03:13;;;;;;;1.77;1.23;;;16.80;99.90;;;;;;5062865;28;20645;-65
2022/10/06 08:05:41;;;;;;;7.73;2.03;;;16.60;99.90;;;;;;5061010;28;20626;-66
2022/10/06 08:08:08;;;;;;;7.13;2.10;;;16.40;99.90;;;;;;5063441;28;20692;-65
2022/10/06 08:10:36;;;;;;;10.83;2.07;;;16.40;99.90;;;;;;5066779;28;20630;-66
2022/10/06 08:13:05;;;;;;;1.10;1.00;;;16.40;99.90;;;;;;5065776;28;20630;-66
2022/10/06 08:15:33;;;;;;;5.17;1.40;;;16.40;99.90;;;;;;5070045;28;20622;-66
2022/10/06 08:18:03;;;;;;;5.90;1.83;;;16.30;99.90;;;;;;5069104;28;21018;-65
2022/10/06 08:20:33;;;;;;;9.93;1.70;;;16.30;99.90;;;;;;5067793;28;20602;-66
2022/10/06 08:23:01;;;;;;;8.73;1.67;;;16.30;99.90;;;;;;5064859;28;20750;-66
2022/10/06 08:25:29;;;;;;;3.97;2.20;;;16.40;99.90;;;;;;5058895;28;20627;-65
2022/10/06 08:27:56;;;;;;;7.57;1.70;;;16.20;99.90;;;;;;5072760;28;20950;-66
2022/10/06 08:30:25;;;;;;;3.83;1.60;;;16.30;99.90;;;;;;5072653;28;20601;-66
2022/10/06 08:32:53;;;;;;;6.23;1.57;;;16.20;99.90;;;;;;5072483;28;20622;-66
2022/10/06 08:35:22;;;;;;;8.93;1.70;;;16.40;99.90;;;;;;5056400;28;20627;-66
2022/10/06 08:37:51;;;;;;;4.67;1.67;;;16.70;99.90;;;;;;5056216;28;20641;-65
2022/10/06 08:40:18;;;;;;;6.13;1.90;;;16.90;99.90;;;;;;5057995;28;21189;-66
2022/10/06 08:42:50;;;;;;;5.67;1.77;;;17.30;99.90;;;;;;5062981;28;20630;-66
2022/10/06 08:45:23;;;;;;;4.60;1.50;;;17.70;99.90;;;;;;5066742;28;20595;-66
2022/10/06 08:47:59;;;;;;;5.10;2.00;;;17.90;99.90;;;;;;5062733;28;20959;-66
2022/10/06 08:50:31;;;;;;;5.17;1.93;;;18.00;99.90;;;;;;5062257;28;20645;-66
2022/10/06 08:53:05;;;;;;;5.43;1.80;;;18.20;99.90;;;;;;5058749;28;20645;-66
2022/10/06 08:55:41;;;;;;;4.73;2.47;;;18.10;99.90;;;;;;5057605;28;21157;-66
2022/10/06 08:58:29;;;;;;;5.20;1.50;;;17.80;99.90;;;;;;5063159;28;20740;-66
2022/10/06 09:01:02;;;;;;;9.90;3.10;;;17.50;99.90;;;;;;5058929;28;20615;-67
2022/10/06 09:03:30;;;;;;;3.00;1.60;;;17.20;99.90;;;;;;5057539;28;21060;-66
2022/10/06 09:06:07;;;;;;;6.40;1.90;;;17.50;99.90;;;;;;5068391;28;20634;-66
2022/10/06 09:08:51;;;;;;;5.47;2.00;;;17.70;99.90;;;;;;5062935;28;20622;-66
2022/10/06 09:11:46;;;;;;;3.23;1.33;;;17.80;99.90;;;;;;5069373;28;20610;-66
2022/10/06 09:14:25;;;;;;;5.23;1.90;;;17.70;99.90;;;;;;5061476;28;20991;-66
2022/10/06 09:16:59;;;;;;;4.67;1.97;;;17.80;99.90;;;;;;5064757;28;20617;-66
2022/10/06 09:19:42;;;;;;;5.83;1.93;;;18.20;99.90;;;;;;5060981;28;20969;-66
2022/10/06 09:22:19;;;;;;;4.60;2.00;;;18.40;99.90;;;;;;5070201;28;20601;-66
2022/10/06 09:24:49;;;;;;;5.20;2.00;;;18.50;99.90;;;;;;5068194;28;21057;-66
2022/10/06 09:27:21;;;;;;;3.53;2.20;;;18.90;99.90;;;;;;5061274;28;20637;-66
2022/10/06 09:29:50;;;;;;;2.40;2.00;;;18.80;99.90;;;;;;5057415;28;20648;-66
2022/10/06 09:32:20;;;;;;;5.43;2.33;;;18.10;99.90;;;;;;5069796;28;20622;-66
2022/10/06 09:34:51;;;;;;;12.77;2.10;;;18.10;99.90;;;;;;5069985;28;21183;-66
2022/10/06 09:37:20;;;;;;;7.50;1.73;;;18.60;99.90;;;;;;5066978;28;20618;-66
2022/10/06 09:39:49;;;;;;;4.40;1.80;;;18.30;99.90;;;;;;5066507;28;20646;-66
2022/10/06 09:42:21;;;;;;;3.30;1.90;;;18.20;99.90;;;;;;5063075;28;21030;-66
2022/10/06 09:45:06;;;;;;;3.50;1.67;;;18.20;99.90;;;;;;5061083;28;20630;-66
2022/10/06 09:47:39;;;;;;;4.40;2.57;;;18.30;99.90;;;;;;5058832;28;20618;-66
2022/10/06 09:50:23;;;;;;;5.37;2.20;;;18.50;99.90;;;;;;5069641;28;20646;-66
2022/10/06 09:53:15;;;;;;;7.43;2.20;;;18.20;99.90;;;;;;5070230;28;20650;-66
2022/10/06 09:55:52;;;;;;;7.17;2.10;;;18.10;99.90;;;;;;5052995;28;20599;-66
2022/10/06 09:58:23;;;;;;;8.03;2.60;;;18.40;99.90;;;;;;5069754;28;20629;-66
2022/10/06 10:00:56;;;;;;;5.73;1.90;;;18.30;99.90;;;;;;5065322;28;20940;-66
2022/10/06 10:03:25;;;;;;;10.77;2.03;;;18.40;99.90;;;;;;5059492;28;20630;-66
2022/10/06 10:05:54;;;;;;;7.03;2.03;;;18.30;99.90;;;;;;5065871;28;20627;-66
2022/10/06 10:08:26;;;;;;;3.50;2.03;;;18.60;99.90;;;;;;5065673;28;20645;-66
2022/10/06 10:13:56;;;;;;;4.03;2.50;;;19.30;99.90;;;;;;5061934;28;20632;-66
2022/10/06 10:16:25;;;;;;;9.70;2.47;;;19.40;99.90;;;;;;5060173;28;20933;-66
2022/10/06 10:18:53;;;;;;;5.40;2.30;;;19.10;99.90;;;;;;5055542;28;20619;-66
2022/10/06 10:21:25;;;;;;;5.47;2.40;;;18.90;99.90;;;;;;5066632;28;21196;-66
2022/10/06 10:23:57;;;;;;;4.37;2.20;;;19.00;99.90;;;;;;5055389;28;21024;-66
2022/10/06 10:26:38;;;;;;;6.20;2.40;;;19.00;99.90;;;;;;5067924;28;20628;-66
2022/10/06 10:29:20;;;;;;;4.80;2.27;;;19.10;99.90;;;;;;5062985;28;20618;-66
2022/10/06 10:32:01;;;;;;;10.53;2.20;;;18.80;99.90;;;;;;5060595;28;20705;-66
2022/10/06 10:34:53;;;;;;;3.70;1.43;;;18.90;99.90;;;;;;5060652;28;21032;-66
2022/10/06 10:37:25;;;;;;;4.13;2.40;;;19.50;99.90;;;;;;5062556;28;20607;-66
2022/10/06 10:40:00;;;;;;;2.67;1.83;;;19.50;99.90;;;;;;5073412;28;20591;-66
2022/10/06 10:42:33;;;;;;;7.37;2.20;;;19.40;99.90;;;;;;5060237;28;21195;-66
2022/10/06 10:45:03;;;;;;;8.47;2.53;;;19.50;99.90;;;;;;5059570;28;20669;-66
2022/10/06 10:47:36;;;;;;;3.37;1.80;;;20.10;99.90;;;;;;5072507;28;20972;-66
2022/10/06 10:50:11;;;;;;;6.57;2.37;;;20.50;99.90;;;;;;5071482;28;20714;-66
2022/10/06 10:52:42;;;;;;;7.33;2.70;;;20.10;99.90;;;;;;5065563;28;20929;-66
2022/10/06 10:55:22;;;;;;;6.00;3.23;;;21.00;99.90;;;;;;5056761;28;20741;-66
2022/10/06 10:57:51;;;;;;;2.83;2.63;;;21.20;99.90;;;;;;5061500;28;21256;-66
2022/10/06 11:00:24;;;;;;;5.87;3.33;;;21.60;99.90;;;;;;5072320;28;20643;-66
2022/10/06 11:02:53;;;;;;;5.60;2.93;;;21.60;99.90;;;;;;5065936;28;20603;-66
2022/10/06 11:05:34;;;;;;;8.50;3.10;;;21.40;99.90;;;;;;5061226;28;20728;-66
2022/10/06 11:08:10;;;;;;;8.07;2.57;;;21.70;99.90;;;;;;5061102;28;20609;-66
2022/10/06 11:10:46;;;;;;;4.10;2.63;;;21.40;99.90;;;;;;5068214;28;20617;-66
2022/10/06 11:13:22;;;;;;;4.10;2.70;;;20.90;99.90;;;;;;5061195;28;20682;-66
2022/10/06 11:16:06;;;;;;;6.27;2.50;;;20.90;99.90;;;;;;5055669;28;20627;-66
2022/10/06 11:18:49;;;;;;;7.10;2.43;;;20.40;99.90;;;;;;5056210;28;20735;-66
2022/10/06 11:21:21;;;;;;;6.00;2.97;;;20.30;99.90;;;;;;5053900;28;21008;-66
2022/10/06 11:23:57;;;;;;;4.90;2.80;;;20.60;99.90;;;;;;5054476;28;20607;-66
2022/10/06 11:26:42;;;;;;;4.10;2.27;;;21.20;99.90;;;;;;5061517;28;20691;-66
2022/10/06 11:29:21;;;;;;;5.33;2.93;;;21.40;99.90;;;;;;5059143;28;20692;-66
2022/10/06 11:31:59;;;;;;;4.90;2.97;;;21.80;99.90;;;;;;5062629;28;20969;-66
2022/10/06 11:34:30;;;;;;;4.57;2.70;;;20.80;99.90;;;;;;5059442;28;20637;-66
2022/10/06 11:37:03;;;;;;;3.93;2.77;;;20.90;99.90;;;;;;5060743;28;20626;-66
2022/10/06 11:39:40;;;;;;;3.83;3.30;;;21.50;99.90;;;;;;5061529;28;20675;-66
2022/10/06 11:42:22;;;;;;;6.60;3.00;;;21.60;99.90;;;;;;5062036;28;20606;-66
2022/10/06 11:44:57;;;;;;;5.67;2.60;;;21.00;99.90;;;;;;5061684;28;20650;-66
2022/10/06 11:47:32;;;;;;;4.53;2.70;;;20.90;99.90;;;;;;5060783;28;20617;-66
2022/10/06 11:49:59;;;;;;;5.07;2.93;;;22.00;99.90;;;;;;5060043;28;20731;-67
2022/10/06 11:52:52;;;;;;;3.33;3.03;;;23.20;99.90;;;;;;5069583;28;20602;-67
2022/10/06 11:55:22;;;;;;;8.37;3.83;;;24.50;99.90;;;;;;5055887;28;20678;-67
2022/10/06 11:58:16;;;;;;;4.80;3.50;;;24.80;99.90;;;;;;5059645;28;20906;-66
2022/10/06 12:00:49;;;;;;;4.93;3.37;;;22.30;99.90;;;;;;5068626;28;20622;-66
2022/10/06 12:03:53;;;;;;;4.50;3.27;;;22.20;99.90;;;;;;5056280;28;20614;-66
2022/10/06 12:06:59;;;;;;;7.70;3.53;;;22.90;99.90;;;;;;5053314;28;20710;-67
2022/10/06 12:09:47;;;;;;;3.53;3.20;;;22.20;99.90;;;;;;5069321;28;20634;-66
2022/10/06 12:12:44;;;;;;;6.93;3.20;;;22.10;99.90;;;;;;5069385;28;20610;-66
2022/10/06 12:15:43;;;;;;;3.70;3.27;;;21.90;99.90;;;;;;5045649;28;20975;-66
2022/10/06 12:18:24;;;;;;;7.10;3.40;;;22.20;99.90;;;;;;5061618;28;20764;-65
2022/10/06 12:21:05;;;;;;;2.97;2.77;;;21.90;99.90;;;;;;5071497;28;20629;-65
2022/10/06 12:23:52;;;;;;;3.90;3.00;;;22.40;99.90;;;;;;5056327;28;20667;-65
2022/10/06 12:26:28;;;;;;;3.43;2.90;;;23.40;99.90;;;;;;5071475;28;20676;-65
2022/10/06 12:29:01;;;;;;;3.63;3.10;;;23.10;99.90;;;;;;5067283;28;20614;-65
2022/10/06 12:31:51;;;;;;;4.07;3.00;;;22.50;99.90;;;;;;5066899;28;20633;-66
2022/10/06 12:34:41;;;;;;;3.50;3.20;;;21.30;99.90;;;;;;5059529;28;20940;-66
2022/10/06 12:37:44;;;;;;;4.73;3.10;;;21.70;99.90;;;;;;5066507;28;20611;-66
2022/10/06 12:40:45;;;;;;;5.10;3.23;;;22.00;99.90;;;;;;5058697;28;20621;-66
2022/10/06 12:43:58;;;;;;;4.23;3.07;;;23.60;99.90;;;;;;5070410;28;20609;-66
2022/10/06 12:46:36;;;;;;;4.10;3.27;;;23.20;99.90;;;;;;5061749;28;20716;-66
2022/10/06 12:49:24;;;;;;;5.13;3.20;;;22.80;99.90;;;;;;5063911;28;20598;-66
2022/10/06 12:51:53;;;;;;;7.40;3.03;;;22.90;99.90;;;;;;5054137;28;20621;-66
2022/10/06 12:54:27;;;;;;;6.80;2.97;;;23.00;99.90;;;;;;5066445;28;21037;-66
2022/10/06 12:56:58;;;;;;;5.50;3.63;;;23.20;99.90;;;;;;5063788;28;20650;-66
2022/10/06 12:59:28;;;;;;;4.50;3.50;;;22.70;99.90;;;;;;5068655;28;20606;-66
2022/10/06 13:01:58;;;;;;;3.90;3.47;;;22.50;99.90;;;;;;5057236;28;20962;-66
2022/10/06 13:04:40;;;;;;;3.57;3.27;;;23.70;99.90;;;;;;5065423;28;20611;-66
2022/10/06 13:07:17;;;;;;;5.43;3.23;;;23.80;99.90;;;;;;5061584;28;20646;-66
2022/10/06 13:09:47;;;;;;;6.43;3.90;;;22.80;99.90;;;;;;5051849;28;20618;-66
2022/10/06 13:12:28;;;;;;;8.27;3.70;;;22.50;99.90;;;;;;5059352;28;20634;-66
2022/10/06 13:15:17;;;;;;;4.83;3.40;;;23.50;99.90;;;;;;5059795;28;21047;-66
2022/10/06 13:17:49;;;;;;;3.40;3.20;;;23.60;99.90;;;;;;5060749;28;20618;-66
2022/10/06 13:20:27;;;;;;;6.40;4.13;;;24.30;99.90;;;;;;5068549;28;20602;-66
2022/10/06 13:22:58;;;;;;;8.00;3.57;;;25.20;99.90;;;;;;5070291;28;20602;-66
2022/10/06 13:25:33;;;;;;;6.40;3.30;;;26.00;99.90;;;;;;5060928;28;20646;-66
2022/10/06 13:28:02;;;;;;;9.70;5.23;;;25.10;99.90;;;;;;5068106;28;20621;-66
2022/10/06 13:30:40;;;;;;;6.60;4.30;;;25.10;99.90;;;;;;5062490;28;20604;-66
2022/10/06 13:33:08;;;;;;;10.83;4.70;;;25.70;99.90;;;;;;5058114;28;20631;-66
2022/10/06 13:35:38;;;;;;;4.63;3.43;;;26.60;99.90;;;;;;5068243;28;20618;-66
2022/10/06 13:38:06;;;;;;;4.20;3.80;;;26.90;99.90;;;;;;5069885;28;20606;-66